Time,TemperatureF,DewpointF,PressureIn,WindDirection,WindDirectionDegrees,WindSpeedMPH,WindSpeedGustMPH,Humidity,HourlyPrecipIn,Conditions,Clouds,dailyrainin,SolarRadiationWatts/m^2,SoftwareType,DateUTC
2013-04-15 00:01:00,32.0,31.0,-100.00,SE,128,7.0,13.0,95,0.00,,,0.00,0.000000,,2013-04-15 05:01:00,
2013-04-15 00:33:00,32.0,31.0,-100.00,SE,128,7.0,13.0,95,0.00,,,0.00,0.000000,,2013-04-15 05:33:00,
2013-04-15 00:43:00,32.0,31.0,-100.00,SE,128,7.0,13.0,95,0.00,,,0.00,0.000000,,2013-04-15 05:43:00,
2013-04-15 00:53:00,32.0,31.0,-100.00,SE,128,7.0,13.0,95,0.00,,,0.00,0.000000,,2013-04-15 05:53:00,
2013-04-15 01:01:00,33.0,32.0,-100.00,SE,131,5.0,11.0,95,0.00,,,0.00,0.000000,,2013-04-15 06:01:00,
2013-04-15 01:23:00,33.0,32.0,-100.00,SE,131,5.0,11.0,95,0.00,,,0.00,0.000000,,2013-04-15 06:23:00,
2013-04-15 01:34:00,33.0,32.0,-100.00,SE,131,5.0,11.0,95,0.00,,,0.00,0.000000,,2013-04-15 06:34:00,
2013-04-15 01:43:00,33.0,32.0,-100.00,SE,131,5.0,11.0,95,0.00,,,0.00,0.000000,,2013-04-15 06:43:00,
2013-04-15 01:52:00,33.0,32.0,-100.00,SE,131,5.0,11.0,95,0.00,,,0.00,0.000000,,2013-04-15 06:52:00,
2013-04-15 02:01:00,33.0,32.0,-100.00,SE,129,4.0,9.0,96,0.00,,,0.00,0.000000,,2013-04-15 07:01:00,
2013-04-15 02:42:00,33.0,32.0,-100.00,SE,129,4.0,9.0,96,0.00,,,0.00,0.000000,,2013-04-15 07:42:00,
2013-04-15 02:43:00,33.0,32.0,-100.00,SE,129,4.0,9.0,96,0.00,,,0.00,0.000000,,2013-04-15 07:43:00,
2013-04-15 02:54:00,33.0,32.0,-100.00,SE,129,4.0,9.0,96,0.00,,,0.00,0.000000,,2013-04-15 07:54:00,
2013-04-15 03:01:00,33.0,32.0,-100.00,SE,126,4.0,8.0,96,0.00,,,0.00,0.000000,,2013-04-15 08:01:00,
2013-04-15 03:34:00,33.0,32.0,-100.00,SE,126,4.0,8.0,96,0.00,,,0.00,0.000000,,2013-04-15 08:34:00,
2013-04-15 03:43:00,33.0,32.0,-100.00,SE,126,4.0,8.0,96,0.00,,,0.00,0.000000,,2013-04-15 08:43:00,
2013-04-15 03:52:00,33.0,32.0,-100.00,SE,126,4.0,8.0,96,0.00,,,0.00,0.000000,,2013-04-15 08:52:00,
2013-04-15 04:01:00,33.0,32.0,-100.00,SSW,199,3.0,7.0,97,0.00,,,0.00,0.000000,,2013-04-15 09:01:00,
2013-04-15 04:23:00,33.0,32.0,-100.00,SSW,199,3.0,7.0,97,0.00,,,0.00,0.000000,,2013-04-15 09:23:00,
2013-04-15 04:33:00,33.0,32.0,-100.00,SSW,199,3.0,7.0,97,0.00,,,0.00,0.000000,,2013-04-15 09:33:00,
2013-04-15 04:43:00,33.0,32.0,-100.00,SSW,199,3.0,7.0,97,0.00,,,0.00,0.000000,,2013-04-15 09:43:00,
2013-04-15 04:53:00,33.0,32.0,-100.00,SSW,199,3.0,7.0,97,0.00,,,0.00,0.000000,,2013-04-15 09:53:00,
2013-04-15 05:01:00,33.0,32.0,-100.00,SSW,200,4.0,9.0,97,0.00,,,0.00,0.000000,,2013-04-15 10:01:00,
2013-04-15 05:33:00,33.0,32.0,-100.00,SSW,200,4.0,9.0,97,0.00,,,0.00,0.000000,,2013-04-15 10:33:00,
2013-04-15 05:42:00,33.0,32.0,-100.00,SSW,200,4.0,9.0,97,0.00,,,0.00,0.000000,,2013-04-15 10:42:00,
2013-04-15 05:53:00,33.0,32.0,-100.00,SSW,200,4.0,9.0,97,0.00,,,0.00,0.000000,,2013-04-15 10:53:00,
2013-04-15 06:01:00,34.0,33.0,-100.00,SW,215,6.0,9.0,97,0.00,,,0.00,0.000000,,2013-04-15 11:01:00,
2013-04-15 06:23:00,34.0,33.0,-100.00,SW,215,6.0,9.0,97,0.00,,,0.00,0.000000,,2013-04-15 11:23:00,
2013-04-15 06:33:00,34.0,33.0,-100.00,SW,215,6.0,9.0,97,0.00,,,0.00,0.000000,,2013-04-15 11:33:00,
2013-04-15 06:43:00,34.0,33.0,-100.00,SW,215,6.0,9.0,97,0.00,,,0.00,0.000000,,2013-04-15 11:43:00,
2013-04-15 06:54:00,34.0,33.0,-100.00,SW,215,6.0,9.0,97,0.00,,,0.00,0.000000,,2013-04-15 11:54:00,
2013-04-15 07:01:00,34.0,33.0,-100.00,SSW,210,5.0,10.0,96,0.00,,,0.00,14.000000,,2013-04-15 12:01:00,
2013-04-15 07:34:00,34.0,33.0,-100.00,SSW,210,5.0,10.0,96,0.00,,,0.00,14.000000,,2013-04-15 12:34:00,
2013-04-15 07:43:00,34.0,33.0,-100.00,SSW,210,5.0,10.0,96,0.00,,,0.00,14.000000,,2013-04-15 12:43:00,
2013-04-15 07:53:00,34.0,33.0,-100.00,SSW,210,5.0,10.0,96,0.00,,,0.00,14.000000,,2013-04-15 12:53:00,
2013-04-15 08:01:00,36.0,33.0,-100.00,SW,220,5.0,11.0,89,0.00,,,0.00,140.000000,,2013-04-15 13:01:00,
2013-04-15 08:34:00,36.0,33.0,-100.00,SW,220,5.0,11.0,89,0.00,,,0.00,140.000000,,2013-04-15 13:34:00,
2013-04-15 08:43:00,36.0,33.0,-100.00,SW,220,5.0,11.0,89,0.00,,,0.00,140.000000,,2013-04-15 13:43:00,
2013-04-15 08:54:00,36.0,33.0,-100.00,SW,220,5.0,11.0,89,0.00,,,0.00,140.000000,,2013-04-15 13:54:00,
2013-04-15 09:01:00,38.0,33.0,-100.00,SW,222,7.0,14.0,82,0.00,,,0.00,369.000000,,2013-04-15 14:01:00,
2013-04-15 09:23:00,38.0,33.0,-100.00,SW,222,7.0,14.0,82,0.00,,,0.00,369.000000,,2013-04-15 14:23:00,
2013-04-15 09:34:00,38.0,33.0,-100.00,SW,222,7.0,14.0,82,0.00,,,0.00,369.000000,,2013-04-15 14:34:00,
2013-04-15 09:44:00,38.0,33.0,-100.00,SW,222,7.0,14.0,82,0.00,,,0.00,369.000000,,2013-04-15 14:44:00,
2013-04-15 09:55:00,38.0,33.0,-100.00,SW,222,7.0,14.0,82,0.00,,,0.00,369.000000,,2013-04-15 14:55:00,
2013-04-15 10:01:00,41.0,32.0,-100.00,SW,220,9.0,16.0,71,0.00,,,0.00,421.000000,,2013-04-15 15:01:00,
2013-04-15 10:37:00,41.0,32.0,-100.00,SW,220,9.0,16.0,71,0.00,,,0.00,421.000000,,2013-04-15 15:37:00,
2013-04-15 10:45:00,41.0,32.0,-100.00,SW,220,9.0,16.0,71,0.00,,,0.00,421.000000,,2013-04-15 15:45:00,
2013-04-15 10:55:00,41.0,32.0,-100.00,SW,220,9.0,16.0,71,0.00,,,0.00,421.000000,,2013-04-15 15:55:00,
2013-04-15 11:01:00,44.0,33.0,-100.00,SSW,211,10.0,21.0,64,0.00,,,0.00,726.000000,,2013-04-15 16:01:00,
2013-04-15 11:25:00,44.0,33.0,-100.00,SSW,211,10.0,21.0,64,0.00,,,0.00,726.000000,,2013-04-15 16:25:00,
2013-04-15 11:34:00,44.0,33.0,-100.00,SSW,211,10.0,21.0,64,0.00,,,0.00,726.000000,,2013-04-15 16:34:00,
2013-04-15 11:44:00,44.0,33.0,-100.00,SSW,211,10.0,21.0,64,0.00,,,0.00,726.000000,,2013-04-15 16:44:00,
2013-04-15 11:54:00,44.0,33.0,-100.00,SSW,211,10.0,21.0,64,0.00,,,0.00,726.000000,,2013-04-15 16:54:00,
2013-04-15 12:01:00,42.0,28.0,-100.00,WSW,245,13.0,25.0,57,0.00,,,0.00,539.000000,,2013-04-15 17:01:00,
2013-04-15 12:33:00,42.0,28.0,-100.00,WSW,245,13.0,25.0,57,0.00,,,0.00,539.000000,,2013-04-15 17:33:00,
2013-04-15 12:43:00,42.0,28.0,-100.00,WSW,245,13.0,25.0,57,0.00,,,0.00,539.000000,,2013-04-15 17:43:00,
2013-04-15 12:52:00,42.0,28.0,-100.00,WSW,245,13.0,25.0,57,0.00,,,0.00,539.000000,,2013-04-15 17:52:00,
2013-04-15 13:01:00,42.0,21.0,-100.00,SW,234,15.0,29.0,43,0.00,,,0.00,682.000000,,2013-04-15 18:01:00,
2013-04-15 13:24:00,42.0,21.0,-100.00,SW,234,15.0,29.0,43,0.00,,,0.00,682.000000,,2013-04-15 18:24:00,
2013-04-15 13:33:00,42.0,21.0,-100.00,SW,234,15.0,29.0,43,0.00,,,0.00,682.000000,,2013-04-15 18:33:00,
2013-04-15 13:42:00,42.0,21.0,-100.00,SW,234,15.0,29.0,43,0.00,,,0.00,682.000000,,2013-04-15 18:42:00,
2013-04-15 13:52:00,42.0,21.0,-100.00,SW,234,15.0,29.0,43,0.00,,,0.00,682.000000,,2013-04-15 18:52:00,
2013-04-15 14:01:00,38.0,24.0,-100.00,WSW,252,13.0,29.0,56,0.00,,,0.00,302.000000,,2013-04-15 19:01:00,
2013-04-15 14:22:00,38.0,24.0,-100.00,WSW,252,13.0,29.0,56,0.00,,,0.00,302.000000,,2013-04-15 19:22:00,
2013-04-15 14:39:00,38.0,24.0,-100.00,WSW,252,13.0,29.0,56,0.00,,,0.00,302.000000,,2013-04-15 19:39:00,
2013-04-15 15:01:00,38.0,24.0,-100.00,SW,234,11.0,24.0,56,0.00,,,0.00,357.000000,,2013-04-15 20:01:00,
2013-04-15 15:32:00,38.0,24.0,-100.00,SW,234,11.0,24.0,56,0.00,,,0.00,357.000000,,2013-04-15 20:32:00,
2013-04-15 15:42:00,38.0,24.0,-100.00,SW,234,11.0,24.0,56,0.00,,,0.00,357.000000,,2013-04-15 20:42:00,
2013-04-15 15:52:00,38.0,24.0,-100.00,SW,234,11.0,24.0,56,0.00,,,0.00,357.000000,,2013-04-15 20:52:00,
2013-04-15 16:01:00,37.0,24.0,-100.00,SW,233,11.0,21.0,58,0.00,,,0.00,147.000000,,2013-04-15 21:01:00,
2013-04-15 16:33:00,37.0,24.0,-100.00,SW,233,11.0,21.0,58,0.00,,,0.00,147.000000,,2013-04-15 21:33:00,
2013-04-15 16:43:00,37.0,24.0,-100.00,SW,233,11.0,21.0,58,0.00,,,0.00,147.000000,,2013-04-15 21:43:00,
2013-04-15 16:53:00,37.0,24.0,-100.00,SW,233,11.0,21.0,58,0.00,,,0.00,147.000000,,2013-04-15 21:53:00,
2013-04-15 17:01:00,38.0,25.0,-100.00,WSW,238,9.0,21.0,60,0.00,,,0.00,116.000000,,2013-04-15 22:01:00,
2013-04-15 17:33:00,38.0,25.0,-100.00,WSW,238,9.0,21.0,60,0.00,,,0.00,116.000000,,2013-04-15 22:33:00,
2013-04-15 17:42:00,38.0,25.0,-100.00,WSW,238,9.0,21.0,60,0.00,,,0.00,116.000000,,2013-04-15 22:42:00,
2013-04-15 17:52:00,38.0,25.0,-100.00,WSW,238,9.0,21.0,60,0.00,,,0.00,116.000000,,2013-04-15 22:52:00,
2013-04-15 18:01:00,37.0,25.0,-100.00,WSW,238,8.0,19.0,62,0.00,,,0.00,101.000000,,2013-04-15 23:01:00,
2013-04-15 18:32:00,37.0,25.0,-100.00,WSW,238,8.0,19.0,62,0.00,,,0.00,101.000000,,2013-04-15 23:32:00,
2013-04-15 18:42:00,37.0,25.0,-100.00,WSW,238,8.0,19.0,62,0.00,,,0.00,101.000000,,2013-04-15 23:42:00,
2013-04-15 18:52:00,37.0,25.0,-100.00,WSW,238,8.0,19.0,62,0.00,,,0.00,101.000000,,2013-04-15 23:52:00,
2013-04-15 19:01:00,36.0,25.0,-100.00,WSW,243,7.0,19.0,64,0.00,,,0.00,32.000000,,2013-04-16 00:01:00,
2013-04-15 19:22:00,36.0,25.0,-100.00,WSW,243,7.0,19.0,64,0.00,,,0.00,32.000000,,2013-04-16 00:22:00,
2013-04-15 19:32:00,36.0,25.0,-100.00,WSW,243,7.0,19.0,64,0.00,,,0.00,32.000000,,2013-04-16 00:32:00,
2013-04-15 19:42:00,36.0,25.0,-100.00,WSW,243,7.0,19.0,64,0.00,,,0.00,32.000000,,2013-04-16 00:42:00,
2013-04-15 19:52:00,36.0,25.0,-100.00,WSW,243,7.0,19.0,64,0.00,,,0.00,32.000000,,2013-04-16 00:52:00,
2013-04-15 20:01:00,36.0,25.0,-100.00,WSW,257,8.0,15.0,64,0.00,,,0.00,8.000000,,2013-04-16 01:01:00,
2013-04-15 20:22:00,36.0,25.0,-100.00,WSW,257,8.0,15.0,64,0.00,,,0.00,8.000000,,2013-04-16 01:22:00,
2013-04-15 20:32:00,36.0,25.0,-100.00,WSW,257,8.0,15.0,64,0.00,,,0.00,8.000000,,2013-04-16 01:32:00,
2013-04-15 20:42:00,36.0,25.0,-100.00,WSW,257,8.0,15.0,64,0.00,,,0.00,8.000000,,2013-04-16 01:42:00,
2013-04-15 20:52:00,36.0,25.0,-100.00,WSW,257,8.0,15.0,64,0.00,,,0.00,8.000000,,2013-04-16 01:52:00,
2013-04-15 21:01:00,36.0,25.0,-100.00,WSW,253,7.0,17.0,65,0.00,,,0.00,0.000000,,2013-04-16 02:01:00,
2013-04-15 21:32:00,36.0,25.0,-100.00,WSW,253,7.0,17.0,65,0.00,,,0.00,0.000000,,2013-04-16 02:32:00,
2013-04-15 21:42:00,36.0,25.0,-100.00,WSW,253,7.0,17.0,65,0.00,,,0.00,0.000000,,2013-04-16 02:42:00,
2013-04-15 21:52:00,36.0,25.0,-100.00,WSW,253,7.0,17.0,65,0.00,,,0.00,0.000000,,2013-04-16 02:52:00,
2013-04-15 22:01:00,35.0,25.0,-100.00,West,264,8.0,14.0,66,0.00,,,0.00,0.000000,,2013-04-16 03:01:00,
2013-04-15 22:33:00,35.0,25.0,-100.00,West,264,8.0,14.0,66,0.00,,,0.00,0.000000,,2013-04-16 03:33:00,
2013-04-15 22:43:00,35.0,25.0,-100.00,West,264,8.0,14.0,66,0.00,,,0.00,0.000000,,2013-04-16 03:43:00,
2013-04-15 22:53:00,35.0,25.0,-100.00,West,264,8.0,14.0,66,0.00,,,0.00,0.000000,,2013-04-16 03:53:00,
2013-04-15 23:01:00,35.0,26.0,-100.00,West,259,7.0,18.0,69,0.00,,,0.00,0.000000,,2013-04-16 04:01:00,
2013-04-15 23:23:00,35.0,26.0,-100.00,West,259,7.0,18.0,69,0.00,,,0.00,0.000000,,2013-04-16 04:23:00,
2013-04-15 23:33:00,35.0,26.0,-100.00,West,259,7.0,18.0,69,0.00,,,0.00,0.000000,,2013-04-16 04:33:00,
2013-04-15 23:42:00,35.0,26.0,-100.00,West,259,7.0,18.0,69,0.00,,,0.00,0.000000,,2013-04-16 04:42:00,
2013-04-15 23:53:00,35.0,26.0,-100.00,West,259,7.0,18.0,69,0.00,,,0.00,0.000000,,2013-04-16 04:53:00,